sensor_id;sensor_type;location;lat;lon;timestamp;pressure;altitude;pressure_sealevel;temperature
12126;BMP180;6126;57.908;16.490;2022-11-25T00:02:20;101746.41;;;2.02
12126;BMP180;6126;57.908;16.490;2022-11-25T00:04:47;101736.94;;;2.02
12126;BMP180;6126;57.908;16.490;2022-11-25T00:07:13;101744.69;;;2.04
12126;BMP180;6126;57.908;16.490;2022-11-25T00:09:39;101748.16;;;2.06
12126;BMP180;6126;57.908;16.490;2022-11-25T00:12:04;101750.72;;;2.07
12126;BMP180;6126;57.908;16.490;2022-11-25T00:14:30;101747.34;;;2.11
12126;BMP180;6126;57.908;16.490;2022-11-25T00:16:56;101754.19;;;2.12
12126;BMP180;6126;57.908;16.490;2022-11-25T00:19:22;101754.19;;;2.12
12126;BMP180;6126;57.908;16.490;2022-11-25T00:21:48;101766.22;;;2.09
12126;BMP180;6126;57.908;16.490;2022-11-25T00:24:15;101747.31;;;2.08
12126;BMP180;6126;57.908;16.490;2022-11-25T00:26:42;101756.75;;;2.06
12126;BMP180;6126;57.908;16.490;2022-11-25T00:29:11;101768.78;;;2.07
12126;BMP180;6126;57.908;16.490;2022-11-25T00:31:39;101747.34;;;2.11
12126;BMP180;6126;57.908;16.490;2022-11-25T00:34:06;101754.19;;;2.12
12126;BMP180;6126;57.908;16.490;2022-11-25T00:36:36;101755.09;;;2.14
12126;BMP180;6126;57.908;16.490;2022-11-25T00:39:04;101744.78;;;2.14
12126;BMP180;6126;57.908;16.490;2022-11-25T00:41:31;101752.50;;;2.14
12126;BMP180;6126;57.908;16.490;2022-11-25T00:44:18;101752.50;;;2.14
12126;BMP180;6126;57.908;16.490;2022-11-25T00:47:11;101754.19;;;2.12
12126;BMP180;6126;57.908;16.490;2022-11-25T00:49:39;101746.44;;;2.06
12126;BMP180;6126;57.908;16.490;2022-11-25T00:52:07;101754.16;;;2.03
12126;BMP180;6126;57.908;16.490;2022-11-25T00:54:34;101753.28;;;2.01
12126;BMP180;6126;57.908;16.490;2022-11-25T00:57:00;101768.69;;;1.97
12126;BMP180;6126;57.908;16.490;2022-11-25T00:59:26;101754.94;;;1.96
12126;BMP180;6126;57.908;16.490;2022-11-25T01:01:53;101771.31;;;1.98
12126;BMP180;6126;57.908;16.490;2022-11-25T01:04:20;101769.53;;;1.94
12126;BMP180;6126;57.908;16.490;2022-11-25T01:06:45;101770.41;;;1.93
12126;BMP180;6126;57.908;16.490;2022-11-25T01:09:12;101761.81;;;1.94
12126;BMP180;6126;57.908;16.490;2022-11-25T01:11:39;101762.69;;;1.96
12126;BMP180;6126;57.908;16.490;2022-11-25T01:14:05;101768.72;;;1.98
12126;BMP180;6126;57.908;16.490;2022-11-25T01:16:31;101765.28;;;1.99
12126;BMP180;6126;57.908;16.490;2022-11-25T01:18:58;101767.88;;;2.02
12126;BMP180;6126;57.908;16.490;2022-11-25T01:21:31;101766.19;;;2.03
12126;BMP180;6126;57.908;16.490;2022-11-25T01:23:59;101763.56;;;1.98
12126;BMP180;6126;57.908;16.490;2022-11-25T01:26:27;101761.84;;;1.99
12126;BMP180;6126;57.908;16.490;2022-11-25T01:28:57;101766.16;;;2.01
12126;BMP180;6126;57.908;16.490;2022-11-25T01:31:26;101774.75;;;2.00
12126;BMP180;6126;57.908;16.490;2022-11-25T01:34:00;101773.03;;;2.01
12126;BMP180;6126;57.908;16.490;2022-11-25T01:36:27;101779.06;;;2.01
12126;BMP180;6126;57.908;16.490;2022-11-25T01:38:56;101782.50;;;2.02
12126;BMP180;6126;57.908;16.490;2022-11-25T01:41:24;101785.91;;;2.02
12126;BMP180;6126;57.908;16.490;2022-11-25T01:46:53;101789.38;;;2.04
12126;BMP180;6126;57.908;16.490;2022-11-25T01:49:43;101781.66;;;2.07
12126;BMP180;6126;57.908;16.490;2022-11-25T01:52:24;101789.44;;;2.09
12126;BMP180;6126;57.908;16.490;2022-11-25T01:55:09;101798.91;;;2.11
12126;BMP180;6126;57.908;16.490;2022-11-25T01:58:17;101798.03;;;2.11
12126;BMP180;6126;57.908;16.490;2022-11-25T02:00:45;101785.13;;;2.09
12126;BMP180;6126;57.908;16.490;2022-11-25T02:03:27;101774.78;;;2.06
12126;BMP180;6126;57.908;16.490;2022-11-25T02:06:12;101785.94;;;2.04
12126;BMP180;6126;57.908;16.490;2022-11-25T02:08:46;101782.50;;;2.00
12126;BMP180;6126;57.908;16.490;2022-11-25T02:11:14;101782.47;;;1.99
12126;BMP180;6126;57.908;16.490;2022-11-25T02:13:42;101785.03;;;1.97
12126;BMP180;6126;57.908;16.490;2022-11-25T02:16:09;101784.16;;;1.97
12126;BMP180;6126;57.908;16.490;2022-11-25T02:18:35;101785.03;;;1.97
12126;BMP180;6126;57.908;16.490;2022-11-25T02:21:00;101781.63;;;1.98
12126;BMP180;6126;57.908;16.490;2022-11-25T02:23:55;101781.59;;;1.95
12126;BMP180;6126;57.908;16.490;2022-11-25T02:26:22;101783.28;;;1.93
12126;BMP180;6126;57.908;16.490;2022-11-25T02:28:48;101789.28;;;1.91
12126;BMP180;6126;57.908;16.490;2022-11-25T02:31:22;101790.16;;;1.94
12126;BMP180;6126;57.908;16.490;2022-11-25T02:33:48;101801.38;;;1.98
12126;BMP180;6126;57.908;16.490;2022-11-25T02:36:21;101789.34;;;2.00
12126;BMP180;6126;57.908;16.490;2022-11-25T02:38:55;101789.38;;;2.01
12126;BMP180;6126;57.908;16.490;2022-11-25T02:41:31;101793.66;;;2.02
12126;BMP180;6126;57.908;16.490;2022-11-25T02:43:58;101786.81;;;2.04
12126;BMP180;6126;57.908;16.490;2022-11-25T02:46:27;101794.53;;;2.03
12126;BMP180;6126;57.908;16.490;2022-11-25T02:48:57;101791.06;;;2.02
12126;BMP180;6126;57.908;16.490;2022-11-25T02:51:27;101791.06;;;1.99
12126;BMP180;6126;57.908;16.490;2022-11-25T02:53:55;101796.19;;;1.96
12126;BMP180;6126;57.908;16.490;2022-11-25T02:56:29;101792.75;;;1.97
12126;BMP180;6126;57.908;16.490;2022-11-25T02:58:55;101794.47;;;1.95
12126;BMP180;6126;57.908;16.490;2022-11-25T03:01:21;101809.09;;;1.96
12126;BMP180;6126;57.908;16.490;2022-11-25T03:03:47;101813.38;;;1.97
12126;BMP180;6126;57.908;16.490;2022-11-25T03:06:13;101807.38;;;2.00
12126;BMP180;6126;57.908;16.490;2022-11-25T03:08:38;101803.09;;;2.02
12126;BMP180;6126;57.908;16.490;2022-11-25T03:11:05;101814.31;;;2.04
12126;BMP180;6126;57.908;16.490;2022-11-25T03:13:31;101819.47;;;2.04
12126;BMP180;6126;57.908;16.490;2022-11-25T03:15:57;101814.28;;;2.02
12126;BMP180;6126;57.908;16.490;2022-11-25T03:18:23;101810.88;;;2.03
12126;BMP180;6126;57.908;16.490;2022-11-25T03:20:54;101809.19;;;2.05
12126;BMP180;6126;57.908;16.490;2022-11-25T03:23:21;101809.19;;;2.05
12126;BMP180;6126;57.908;16.490;2022-11-25T03:25:47;101804.84;;;2.04
12126;BMP180;6126;57.908;16.490;2022-11-25T03:28:13;101805.72;;;2.03
12126;BMP180;6126;57.908;16.490;2022-11-25T03:30:40;101810.88;;;2.03
12126;BMP180;6126;57.908;16.490;2022-11-25T03:33:07;101809.13;;;2.02
12126;BMP180;6126;57.908;16.490;2022-11-25T03:35:33;101813.44;;;2.03
12126;BMP180;6126;57.908;16.490;2022-11-25T03:37:59;101819.50;;;2.05
12126;BMP180;6126;57.908;16.490;2022-11-25T03:40:25;101819.47;;;2.07
12126;BMP180;6126;57.908;16.490;2022-11-25T03:42:50;101810.88;;;2.06
12126;BMP180;6126;57.908;16.490;2022-11-25T03:45:17;101810.00;;;2.04
12126;BMP180;6126;57.908;16.490;2022-11-25T03:47:44;101820.31;;;2.04
12126;BMP180;6126;57.908;16.490;2022-11-25T03:50:13;101812.56;;;2.01
12126;BMP180;6126;57.908;16.490;2022-11-25T03:52:40;101814.28;;;2.01
12126;BMP180;6126;57.908;16.490;2022-11-25T03:55:07;101811.69;;;1.98
12126;BMP180;6126;57.908;16.490;2022-11-25T03:57:33;101802.22;;;1.95
12126;BMP180;6126;57.908;16.490;2022-11-25T04:00:00;101808.22;;;1.93
12126;BMP180;6126;57.908;16.490;2022-11-25T04:02:26;101819.38;;;1.93
12126;BMP180;6126;57.908;16.490;2022-11-25T04:04:52;101803.88;;;1.90
12126;BMP180;6126;57.908;16.490;2022-11-25T04:07:18;101821.94;;;1.92
12126;BMP180;6126;57.908;16.490;2022-11-25T04:09:44;101824.53;;;1.93
12126;BMP180;6126;57.908;16.490;2022-11-25T04:12:10;101835.72;;;1.95
12126;BMP180;6126;57.908;16.490;2022-11-25T04:14:55;101827.16;;;1.98
12126;BMP180;6126;57.908;16.490;2022-11-25T04:17:20;101834.06;;;2.00
12126;BMP180;6126;57.908;16.490;2022-11-25T04:19:46;101837.50;;;2.04
12126;BMP180;6126;57.908;16.490;2022-11-25T04:22:13;101828.06;;;2.04
12126;BMP180;6126;57.908;16.490;2022-11-25T04:24:38;101836.66;;;2.05
12126;BMP180;6126;57.908;16.490;2022-11-25T04:27:04;101839.22;;;2.05
12126;BMP180;6126;57.908;16.490;2022-11-25T04:29:30;101840.13;;;2.05
12126;BMP180;6126;57.908;16.490;2022-11-25T04:31:56;101840.94;;;2.04
12126;BMP180;6126;57.908;16.490;2022-11-25T04:34:22;101841.81;;;2.03
12126;BMP180;6126;57.908;16.490;2022-11-25T04:36:48;101840.94;;;2.04
12126;BMP180;6126;57.908;16.490;2022-11-25T04:39:13;101854.72;;;2.06
12126;BMP180;6126;57.908;16.490;2022-11-25T04:41:39;101851.25;;;2.04
12126;BMP180;6126;57.908;16.490;2022-11-25T04:44:05;101854.69;;;2.03
12126;BMP180;6126;57.908;16.490;2022-11-25T04:46:40;101852.09;;;2.00
12126;BMP180;6126;57.908;16.490;2022-11-25T04:49:07;101850.34;;;1.99
12126;BMP180;6126;57.908;16.490;2022-11-25T04:51:33;101846.09;;;2.01
12126;BMP180;6126;57.908;16.490;2022-11-25T04:53:58;101861.56;;;2.01
12126;BMP180;6126;57.908;16.490;2022-11-25T04:56:24;101858.09;;;1.99
12126;BMP180;6126;57.908;16.490;2022-11-25T04:58:50;101854.69;;;2.00
12126;BMP180;6126;57.908;16.490;2022-11-25T05:01:35;101856.38;;;2.00
12126;BMP180;6126;57.908;16.490;2022-11-25T05:04:01;101855.50;;;1.99
12126;BMP180;6126;57.908;16.490;2022-11-25T05:06:27;101863.28;;;2.01
12126;BMP180;6126;57.908;16.490;2022-11-25T05:08:53;101864.13;;;2.01
12126;BMP180;6126;57.908;16.490;2022-11-25T05:11:19;101867.56;;;2.02
12126;BMP180;6126;57.908;16.490;2022-11-25T05:13:44;101867.56;;;2.00
12126;BMP180;6126;57.908;16.490;2022-11-25T05:16:10;101868.41;;;1.99
12126;BMP180;6126;57.908;16.490;2022-11-25T05:18:36;101871.84;;;1.98
12126;BMP180;6126;57.908;16.490;2022-11-25T05:21:04;101872.69;;;1.99
12126;BMP180;6126;57.908;16.490;2022-11-25T05:23:31;101874.41;;;1.98
12126;BMP180;6126;57.908;16.490;2022-11-25T05:26:04;101881.28;;;1.99
12126;BMP180;6126;57.908;16.490;2022-11-25T05:28:30;101886.47;;;2.01
12126;BMP180;6126;57.908;16.490;2022-11-25T05:30:57;101874.44;;;2.01
12126;BMP180;6126;57.908;16.490;2022-11-25T05:33:23;101879.59;;;2.01
12126;BMP180;6126;57.908;16.490;2022-11-25T05:36:00;101875.31;;;2.02
12126;BMP180;6126;57.908;16.490;2022-11-25T05:38:27;101872.72;;;2.00
12126;BMP180;6126;57.908;16.490;2022-11-25T05:41:00;101867.50;;;1.97
12126;BMP180;6126;57.908;16.490;2022-11-25T05:43:27;101858.94;;;1.98
12126;BMP180;6126;57.908;16.490;2022-11-25T05:45:53;101866.69;;;1.98
12126;BMP180;6126;57.908;16.490;2022-11-25T05:48:18;101869.25;;;1.98
12126;BMP180;6126;57.908;16.490;2022-11-25T05:50:44;101865.84;;;2.01
12126;BMP180;6126;57.908;16.490;2022-11-25T05:53:10;101880.50;;;2.03
12126;BMP180;6126;57.908;16.490;2022-11-25T05:55:36;101876.22;;;2.05
12126;BMP180;6126;57.908;16.490;2022-11-25T05:58:03;101879.66;;;2.07
12126;BMP180;6126;57.908;16.490;2022-11-25T06:00:31;101881.41;;;2.08
12126;BMP180;6126;57.908;16.490;2022-11-25T06:02:57;101883.94;;;2.07
12126;BMP180;6126;57.908;16.490;2022-11-25T06:05:23;101888.25;;;2.06
12126;BMP180;6126;57.908;16.490;2022-11-25T06:07:49;101877.06;;;2.06
12126;BMP180;6126;57.908;16.490;2022-11-25T06:10:17;101871.06;;;2.05
12126;BMP180;6126;57.908;16.490;2022-11-25T06:12:43;101878.78;;;2.07
12126;BMP180;6126;57.908;16.490;2022-11-25T06:15:10;101881.41;;;2.08
12126;BMP180;6126;57.908;16.490;2022-11-25T06:17:36;101881.41;;;2.11
12126;BMP180;6126;57.908;16.490;2022-11-25T06:20:04;101890.88;;;2.12
12126;BMP180;6126;57.908;16.490;2022-11-25T06:22:30;101888.28;;;2.12
12126;BMP180;6126;57.908;16.490;2022-11-25T06:24:56;101887.38;;;2.07
12126;BMP180;6126;57.908;16.490;2022-11-25T06:27:22;101891.69;;;2.07
12126;BMP180;6126;57.908;16.490;2022-11-25T06:29:48;101895.13;;;2.06
12126;BMP180;6126;57.908;16.490;2022-11-25T06:32:13;101890.78;;;2.05
12126;BMP180;6126;57.908;16.490;2022-11-25T06:34:39;101883.91;;;2.04
12126;BMP180;6126;57.908;16.490;2022-11-25T06:37:07;101890.78;;;2.02
12126;BMP180;6126;57.908;16.490;2022-11-25T06:39:33;101889.06;;;2.02
12126;BMP180;6126;57.908;16.490;2022-11-25T06:42:00;101884.78;;;2.04
12126;BMP180;6126;57.908;16.490;2022-11-25T06:44:25;101888.25;;;2.06
12126;BMP180;6126;57.908;16.490;2022-11-25T06:46:51;101893.41;;;2.06
12126;BMP180;6126;57.908;16.490;2022-11-25T06:49:17;101898.56;;;2.06
12126;BMP180;6126;57.908;16.490;2022-11-25T06:51:43;101910.59;;;2.07
12126;BMP180;6126;57.908;16.490;2022-11-25T06:54:09;101892.53;;;2.07
12126;BMP180;6126;57.908;16.490;2022-11-25T06:56:35;101899.41;;;2.05
12126;BMP180;6126;57.908;16.490;2022-11-25T06:59:01;101910.56;;;2.03
12126;BMP180;6126;57.908;16.490;2022-11-25T07:01:29;101903.63;;;1.99
12126;BMP180;6126;57.908;16.490;2022-11-25T07:04:00;101909.63;;;1.96
12126;BMP180;6126;57.908;16.490;2022-11-25T07:06:28;101911.34;;;1.96
12126;BMP180;6126;57.908;16.490;2022-11-25T07:08:55;101906.19;;;1.96
12126;BMP180;6126;57.908;16.490;2022-11-25T07:14:06;101894.09;;;1.92
12126;BMP180;6126;57.908;16.490;2022-11-25T07:16:33;101912.97;;;1.89
12126;BMP180;6126;57.908;16.490;2022-11-25T07:19:01;101907.00;;;1.90
12126;BMP180;6126;57.908;16.490;2022-11-25T07:21:28;101906.13;;;1.90
12126;BMP180;6126;57.908;16.490;2022-11-25T07:23:58;101914.69;;;1.89
12126;BMP180;6126;57.908;16.490;2022-11-25T07:26:28;101916.38;;;1.87
12126;BMP180;6126;57.908;16.490;2022-11-25T07:28:59;101917.28;;;1.87
12126;BMP180;6126;57.908;16.490;2022-11-25T07:31:32;101911.25;;;1.87
12126;BMP180;6126;57.908;16.490;2022-11-25T07:34:11;101919.84;;;1.89
12126;BMP180;6126;57.908;16.490;2022-11-25T07:36:38;101923.34;;;1.92
12126;BMP180;6126;57.908;16.490;2022-11-25T07:39:09;101927.66;;;1.96
12126;BMP180;6126;57.908;16.490;2022-11-25T07:41:36;101934.59;;;2.00
12126;BMP180;6126;57.908;16.490;2022-11-25T07:44:04;101923.44;;;2.01
12126;BMP180;6126;57.908;16.490;2022-11-25T07:46:41;101929.44;;;2.00
12126;BMP180;6126;57.908;16.490;2022-11-25T07:49:11;101934.59;;;2.00
12126;BMP180;6126;57.908;16.490;2022-11-25T07:51:42;101935.47;;;2.01
12126;BMP180;6126;57.908;16.490;2022-11-25T07:54:11;101943.19;;;2.02
12126;BMP180;6126;57.908;16.490;2022-11-25T07:56:39;101956.16;;;2.05
12126;BMP180;6126;57.908;16.490;2022-11-25T07:59:08;101955.28;;;2.06
12126;BMP180;6126;57.908;16.490;2022-11-25T08:01:35;101951.00;;;2.08
12126;BMP180;6126;57.908;16.490;2022-11-25T08:04:01;101955.34;;;2.12
12126;BMP180;6126;57.908;16.490;2022-11-25T08:06:28;101962.25;;;2.14
12126;BMP180;6126;57.908;16.490;2022-11-25T08:08:56;101961.38;;;2.15
12126;BMP180;6126;57.908;16.490;2022-11-25T08:11:29;101954.53;;;2.16
12126;BMP180;6126;57.908;16.490;2022-11-25T08:13:56;101954.53;;;2.16
12126;BMP180;6126;57.908;16.490;2022-11-25T08:16:24;101953.63;;;2.15
12126;BMP180;6126;57.908;16.490;2022-11-25T08:18:52;101961.38;;;2.15
12126;BMP180;6126;57.908;16.490;2022-11-25T08:21:19;101960.53;;;2.18
12126;BMP180;6126;57.908;16.490;2022-11-25T08:23:46;101958.84;;;2.20
12126;BMP180;6126;57.908;16.490;2022-11-25T08:28:51;101949.44;;;2.25
12126;BMP180;6126;57.908;16.490;2022-11-25T08:31:27;101964.06;;;2.26
12126;BMP180;6126;57.908;16.490;2022-11-25T08:33:54;101962.38;;;2.28
12126;BMP180;6126;57.908;16.490;2022-11-25T08:36:21;101964.09;;;2.30
12126;BMP180;6126;57.908;16.490;2022-11-25T08:38:51;101966.72;;;2.32
12126;BMP180;6126;57.908;16.490;2022-11-25T08:41:29;101971.88;;;2.36
12126;BMP180;6126;57.908;16.490;2022-11-25T08:43:57;101971.94;;;2.38
12126;BMP180;6126;57.908;16.490;2022-11-25T08:46:29;101980.53;;;2.38
12126;BMP180;6126;57.908;16.490;2022-11-25T08:48:58;101973.63;;;2.36
12126;BMP180;6126;57.908;16.490;2022-11-25T08:51:28;101967.56;;;2.34
12126;BMP180;6126;57.908;16.490;2022-11-25T08:53:55;101977.88;;;2.31
12126;BMP180;6126;57.908;16.490;2022-11-25T08:56:22;101965.81;;;2.30
12126;BMP180;6126;57.908;16.490;2022-11-25T08:58:49;101979.63;;;2.32
12126;BMP180;6126;57.908;16.490;2022-11-25T09:01:16;101971.03;;;2.36
12126;BMP180;6126;57.908;16.490;2022-11-25T09:03:47;101961.63;;;2.39
12126;BMP180;6126;57.908;16.490;2022-11-25T09:06:13;101977.09;;;2.41
12126;BMP180;6126;57.908;16.490;2022-11-25T09:08:42;101970.22;;;2.40
12126;BMP180;6126;57.908;16.490;2022-11-25T09:11:09;101964.16;;;2.36
12126;BMP180;6126;57.908;16.490;2022-11-25T09:13:35;101970.16;;;2.32
12126;BMP180;6126;57.908;16.490;2022-11-25T09:16:01;101977.88;;;2.31
12126;BMP180;6126;57.908;16.490;2022-11-25T09:18:28;101977.00;;;2.30
12126;BMP180;6126;57.908;16.490;2022-11-25T09:20:57;101983.94;;;2.34
12126;BMP180;6126;57.908;16.490;2022-11-25T09:23:24;101976.19;;;2.36
12126;BMP180;6126;57.908;16.490;2022-11-25T09:28:19;101980.53;;;2.40
12126;BMP180;6126;57.908;16.490;2022-11-25T09:30:44;101982.28;;;2.42
12126;BMP180;6126;57.908;16.490;2022-11-25T09:33:10;101978.88;;;2.46
12126;BMP180;6126;57.908;16.490;2022-11-25T09:35:36;101977.19;;;2.48
12126;BMP180;6126;57.908;16.490;2022-11-25T09:38:02;101969.47;;;2.49
12126;BMP180;6126;57.908;16.490;2022-11-25T09:41:07;101978.91;;;2.50
12126;BMP180;6126;57.908;16.490;2022-11-25T09:43:56;101979.78;;;2.49
12126;BMP180;6126;57.908;16.490;2022-11-25T09:47:03;101995.22;;;2.46
12126;BMP180;6126;57.908;16.490;2022-11-25T09:55:53;101974.50;;;2.38
12126;BMP180;6126;57.908;16.490;2022-11-25T09:58:39;101985.69;;;2.41
12126;BMP180;6126;57.908;16.490;2022-11-25T10:01:17;101968.56;;;2.46
12126;BMP180;6126;57.908;16.490;2022-11-25T10:03:53;101980.66;;;2.50
12126;BMP180;6126;57.908;16.490;2022-11-25T10:06:49;101980.66;;;2.53
12126;BMP180;6126;57.908;16.490;2022-11-25T10:09:24;101985.84;;;2.56
12126;BMP180;6126;57.908;16.490;2022-11-25T10:11:59;101988.44;;;2.56
12126;BMP180;6126;57.908;16.490;2022-11-25T10:14:47;101991.84;;;2.53
12126;BMP180;6126;57.908;16.490;2022-11-25T10:20:34;101997.84;;;2.51
12126;BMP180;6126;57.908;16.490;2022-11-25T10:23:22;102004.75;;;2.52
12126;BMP180;6126;57.908;16.490;2022-11-25T10:25:55;102004.78;;;2.55
12126;BMP180;6126;57.908;16.490;2022-11-25T10:28:27;101997.91;;;2.58
12126;BMP180;6126;57.908;16.490;2022-11-25T10:36:47;102007.47;;;2.68
12126;BMP180;6126;57.908;16.490;2022-11-25T10:39:24;102004.06;;;2.74
12126;BMP180;6126;57.908;16.490;2022-11-25T10:41:58;102003.22;;;2.75
12126;BMP180;6126;57.908;16.490;2022-11-25T10:44:30;102001.50;;;2.76
12126;BMP180;6126;57.908;16.490;2022-11-25T10:53:00;102003.31;;;2.83
12126;BMP180;6126;57.908;16.490;2022-11-25T10:55:32;101998.16;;;2.88
12126;BMP180;6126;57.908;16.490;2022-11-25T10:58:39;102001.63;;;2.88
12126;BMP180;6126;57.908;16.490;2022-11-25T11:03:51;101993.88;;;2.93
12126;BMP180;6126;57.908;16.490;2022-11-25T11:06:48;101992.19;;;2.95
12126;BMP180;6126;57.908;16.490;2022-11-25T11:09:36;102001.66;;;2.96
12126;BMP180;6126;57.908;16.490;2022-11-25T11:12:25;101999.06;;;2.96
12126;BMP180;6126;57.908;16.490;2022-11-25T11:15:12;101998.22;;;2.97
12126;BMP180;6126;57.908;16.490;2022-11-25T11:17:39;102004.28;;;3.00
12126;BMP180;6126;57.908;16.490;2022-11-25T11:22:35;102008.66;;;3.10
12126;BMP180;6126;57.908;16.490;2022-11-25T11:25:33;102004.38;;;3.16
12126;BMP180;6126;57.908;16.490;2022-11-25T11:28:02;102015.59;;;3.18
12126;BMP180;6126;57.908;16.490;2022-11-25T11:30:31;102013.88;;;3.22
12126;BMP180;6126;57.908;16.490;2022-11-25T11:41:58;102014.81;;;3.31
12126;BMP180;6126;57.908;16.490;2022-11-25T11:56:52;102024.34;;;3.39
12126;BMP180;6126;57.908;16.490;2022-11-25T11:59:45;102020.91;;;3.40
12126;BMP180;6126;57.908;16.490;2022-11-25T12:05:17;102029.53;;;3.44
12126;BMP180;6126;57.908;16.490;2022-11-25T12:08:15;102032.97;;;3.41
12126;BMP180;6126;57.908;16.490;2022-11-25T12:10:57;102037.28;;;3.41
12126;BMP180;6126;57.908;16.490;2022-11-25T12:16:42;102045.03;;;3.41
12126;BMP180;6126;57.908;16.490;2022-11-25T12:22:35;102035.53;;;3.38
12126;BMP180;6126;57.908;16.490;2022-11-25T12:25:29;102025.19;;;3.37
12126;BMP180;6126;57.908;16.490;2022-11-25T12:31:05;102026.03;;;3.33
12126;BMP180;6126;57.908;16.490;2022-11-25T12:36:17;102021.69;;;3.29
12126;BMP180;6126;57.908;16.490;2022-11-25T12:38:59;102020.81;;;3.27
12126;BMP180;6126;57.908;16.490;2022-11-25T12:44:22;102017.34;;;3.22
12126;BMP180;6126;57.908;16.490;2022-11-25T12:46:52;102009.56;;;3.19
12126;BMP180;6126;57.908;16.490;2022-11-25T12:49:24;102020.75;;;3.18
12126;BMP180;6126;57.908;16.490;2022-11-25T12:55:23;102027.66;;;3.18
12126;BMP180;6126;57.908;16.490;2022-11-25T12:58:58;102033.69;;;3.18
12126;BMP180;6126;57.908;16.490;2022-11-25T13:04:37;102029.38;;;3.19
12126;BMP180;6126;57.908;16.490;2022-11-25T13:07:24;102033.69;;;3.18
12126;BMP180;6126;57.908;16.490;2022-11-25T13:13:40;102035.34;;;3.13
12126;BMP180;6126;57.908;16.490;2022-11-25T13:16:10;102040.53;;;3.12
12126;BMP180;6126;57.908;16.490;2022-11-25T13:18:41;102031.91;;;3.11
12126;BMP180;6126;57.908;16.490;2022-11-25T13:21:16;102031.03;;;3.11
12126;BMP180;6126;57.908;16.490;2022-11-25T13:23:52;102043.09;;;3.10
12126;BMP180;6126;57.908;16.490;2022-11-25T13:34:30;102044.72;;;3.01
12126;BMP180;6126;57.908;16.490;2022-11-25T13:37:33;102043.03;;;3.02
12126;BMP180;6126;57.908;16.490;2022-11-25T13:39:47;102046.47;;;2.99
12126;BMP180;6126;57.908;16.490;2022-11-25T13:42:24;102047.28;;;2.98
12126;BMP180;6126;57.908;16.490;2022-11-25T13:44:54;102036.97;;;2.97
12126;BMP180;6126;57.908;16.490;2022-11-25T13:47:34;102049.00;;;2.95
12126;BMP180;6126;57.908;16.490;2022-11-25T13:52:48;102043.88;;;2.99
12126;BMP180;6126;57.908;16.490;2022-11-25T13:55:36;102044.75;;;3.00
12126;BMP180;6126;57.908;16.490;2022-11-25T14:12:35;102062.78;;;2.94
12126;BMP180;6126;57.908;16.490;2022-11-25T14:15:26;102067.06;;;2.95
12126;BMP180;6126;57.908;16.490;2022-11-25T14:24:13;102057.56;;;2.91
12126;BMP180;6126;57.908;16.490;2022-11-25T14:26:41;102061.00;;;2.90
12126;BMP180;6126;57.908;16.490;2022-11-25T14:29:37;102069.59;;;2.89
12126;BMP180;6126;57.908;16.490;2022-11-25T14:32:44;102066.13;;;2.87
12126;BMP180;6126;57.908;16.490;2022-11-25T14:35:16;102063.53;;;2.85
12126;BMP180;6126;57.908;16.490;2022-11-25T14:38:00;102067.84;;;2.85
12126;BMP180;6126;57.908;16.490;2022-11-25T14:40:37;102066.13;;;2.84
12126;BMP180;6126;57.908;16.490;2022-11-25T14:43:19;102072.94;;;2.80
12126;BMP180;6126;57.908;16.490;2022-11-25T14:45:46;102081.56;;;2.78
12126;BMP180;6126;57.908;16.490;2022-11-25T14:48:18;102082.41;;;2.76
12126;BMP180;6126;57.908;16.490;2022-11-25T14:51:15;102078.94;;;2.75
12126;BMP180;6126;57.908;16.490;2022-11-25T14:53:48;102082.41;;;2.76
12126;BMP180;6126;57.908;16.490;2022-11-25T14:56:23;102075.50;;;2.77
12126;BMP180;6126;57.908;16.490;2022-11-25T14:58:53;102088.44;;;2.79
12126;BMP180;6126;57.908;16.490;2022-11-25T15:01:30;102087.59;;;2.78
12126;BMP180;6126;57.908;16.490;2022-11-25T15:04:03;102085.84;;;2.77
12126;BMP180;6126;57.908;16.490;2022-11-25T15:06:41;102082.41;;;2.77
12126;BMP180;6126;57.908;16.490;2022-11-25T15:09:31;102084.13;;;2.76
12126;BMP180;6126;57.908;16.490;2022-11-25T15:12:16;102097.88;;;2.76
12126;BMP180;6126;57.908;16.490;2022-11-25T15:14:51;102076.34;;;2.74
12126;BMP180;6126;57.908;16.490;2022-11-25T15:19:50;102080.63;;;2.72
12126;BMP180;6126;57.908;16.490;2022-11-25T15:22:20;102089.22;;;2.72
12126;BMP180;6126;57.908;16.490;2022-11-25T15:24:47;102078.91;;;2.71
12126;BMP180;6126;57.908;16.490;2022-11-25T15:27:26;102086.63;;;2.69
12126;BMP180;6126;57.908;16.490;2022-11-25T15:29:55;102094.41;;;2.71
12126;BMP180;6126;57.908;16.490;2022-11-25T15:32:32;102096.13;;;2.70
12126;BMP180;6126;57.908;16.490;2022-11-25T15:35:04;102093.53;;;2.70
12126;BMP180;6126;57.908;16.490;2022-11-25T15:37:31;102092.66;;;2.70
12126;BMP180;6126;57.908;16.490;2022-11-25T15:40:40;102090.94;;;2.69
12126;BMP180;6126;57.908;16.490;2022-11-25T15:43:24;102095.22;;;2.68
12126;BMP180;6126;57.908;16.490;2022-11-25T15:45:58;102092.63;;;2.67
12126;BMP180;6126;57.908;16.490;2022-11-25T15:48:32;102102.09;;;2.66
12126;BMP180;6126;57.908;16.490;2022-11-25T15:51:30;102093.47;;;2.67
12126;BMP180;6126;57.908;16.490;2022-11-25T15:54:04;102093.47;;;2.67
12126;BMP180;6126;57.908;16.490;2022-11-25T15:56:36;102092.66;;;2.68
12126;BMP180;6126;57.908;16.490;2022-11-25T15:59:03;102085.75;;;2.69
12126;BMP180;6126;57.908;16.490;2022-11-25T16:01:29;102096.94;;;2.69
12126;BMP180;6126;57.908;16.490;2022-11-25T16:04:16;102091.78;;;2.69
12126;BMP180;6126;57.908;16.490;2022-11-25T16:06:56;102091.78;;;2.69
12126;BMP180;6126;57.908;16.490;2022-11-25T16:09:24;102094.38;;;2.68
12126;BMP180;6126;57.908;16.490;2022-11-25T16:12:04;102085.75;;;2.69
12126;BMP180;6126;57.908;16.490;2022-11-25T16:14:34;102088.38;;;2.70
12126;BMP180;6126;57.908;16.490;2022-11-25T16:17:04;102094.41;;;2.71
12126;BMP180;6126;57.908;16.490;2022-11-25T16:19:40;102094.41;;;2.71
12126;BMP180;6126;57.908;16.490;2022-11-25T16:22:15;102094.41;;;2.71
12126;BMP180;6126;57.908;16.490;2022-11-25T16:24:52;102089.22;;;2.72
12126;BMP180;6126;57.908;16.490;2022-11-25T16:27:25;102090.09;;;2.71
12126;BMP180;6126;57.908;16.490;2022-11-25T16:32:32;102107.31;;;2.74
12126;BMP180;6126;57.908;16.490;2022-11-25T16:35:19;102092.69;;;2.74
12126;BMP180;6126;57.908;16.490;2022-11-25T16:37:47;102100.44;;;2.74
12126;BMP180;6126;57.908;16.490;2022-11-25T16:40:16;102097.00;;;2.74